Time;durP1;ratioP1;P1;durP2;ratioP2;P2;SDS_P1;SDS_P2;PMS_P1;PMS_P2;Temp;Humidity;BMP_temperature;BMP_pressure;BME280_temperature;BME280_humidity;BME280_pressure;Samples;Min_cycle;Max_cycle;Signal;HPM_P1;HPM_P2
2023/03/14 00:01:20;;;;;;;196.25;83.25;;;6.30;99.90;;;;;;5077151;28;20028;-81
2023/03/14 00:03:46;;;;;;;182.55;78.40;;;6.20;99.90;;;;;;5076898;28;20028;-81
2023/03/14 00:06:13;;;;;;;185.52;76.70;;;6.20;99.90;;;;;;5076736;28;20040;-81
2023/03/14 00:08:40;;;;;;;176.55;73.72;;;6.20;99.90;;;;;;5076820;28;20025;-81
2023/03/14 00:11:20;;;;;;;175.30;77.05;;;6.30;99.90;;;;;;5076928;28;20040;-82
2023/03/14 00:13:48;;;;;;;163.65;74.20;;;6.20;99.90;;;;;;5076745;28;20032;-81
2023/03/14 00:16:17;;;;;;;166.98;73.70;;;6.10;99.90;;;;;;5076628;28;20040;-81
2023/03/14 00:18:43;;;;;;;160.60;73.75;;;6.10;99.90;;;;;;5076400;28;20478;-81
2023/03/14 00:21:10;;;;;;;154.38;69.82;;;6.20;99.90;;;;;;5076680;28;20131;-81
2023/03/14 00:23:38;;;;;;;155.43;67.97;;;6.20;99.90;;;;;;5076188;28;20060;-81
2023/03/14 00:26:10;;;;;;;153.02;67.60;;;6.10;99.90;;;;;;5076175;28;20032;-81
2023/03/14 00:28:37;;;;;;;145.55;66.72;;;6.10;99.90;;;;;;5076321;28;20478;-81
2023/03/14 00:31:05;;;;;;;149.00;63.08;;;6.10;99.90;;;;;;5076618;28;20031;-81
2023/03/14 00:33:31;;;;;;;144.07;66.90;;;6.10;99.90;;;;;;5076210;28;20398;-81
2023/03/14 00:36:00;;;;;;;184.30;77.43;;;6.10;99.90;;;;;;5074902;28;20029;-81
2023/03/14 00:38:30;;;;;;;149.73;65.80;;;5.90;99.90;;;;;;5076144;28;20470;-81
2023/03/14 00:40:57;;;;;;;131.48;59.60;;;5.80;99.90;;;;;;5076117;28;20055;-82
2023/03/14 00:43:24;;;;;;;142.98;63.08;;;5.90;99.90;;;;;;5076408;28;20417;-81
2023/03/14 00:45:51;;;;;;;128.80;56.40;;;5.80;99.90;;;;;;5076245;28;20036;-82
2023/03/14 00:48:19;;;;;;;129.15;57.67;;;5.80;99.90;;;;;;5075922;28;20040;-82
2023/03/14 00:50:45;;;;;;;121.25;54.60;;;5.70;99.90;;;;;;5076051;28;20111;-82
2023/03/14 00:53:14;;;;;;;136.60;60.63;;;5.70;99.90;;;;;;5074516;28;20055;-81
2023/03/14 00:55:42;;;;;;;143.50;62.65;;;5.80;99.90;;;;;;5075920;28;20025;-81
2023/03/14 00:58:09;;;;;;;159.25;67.25;;;5.80;99.90;;;;;;5075999;28;20037;-81
2023/03/14 01:00:35;;;;;;;157.10;68.18;;;5.80;99.90;;;;;;5075649;28;20035;-81
2023/03/14 01:03:02;;;;;;;157.77;68.90;;;5.80;99.90;;;;;;5074433;28;20032;-82
2023/03/14 01:05:28;;;;;;;152.40;69.13;;;5.90;99.90;;;;;;5075493;28;20063;-82
2023/03/14 01:07:54;;;;;;;150.70;70.28;;;5.90;99.90;;;;;;5075521;28;20042;-82
2023/03/14 01:10:20;;;;;;;160.50;72.28;;;5.90;99.90;;;;;;5075804;28;20107;-82
2023/03/14 01:12:46;;;;;;;160.73;72.45;;;5.90;99.90;;;;;;5075450;28;20021;-82
2023/03/14 01:15:12;;;;;;;160.70;69.38;;;5.90;99.90;;;;;;5075531;28;20043;-82
2023/03/14 01:17:39;;;;;;;160.13;70.13;;;6.00;99.90;;;;;;5075399;28;20044;-82
2023/03/14 01:20:09;;;;;;;156.75;69.03;;;6.00;99.90;;;;;;5075492;28;20060;-82
2023/03/14 01:22:36;;;;;;;145.30;65.93;;;5.90;99.90;;;;;;5075320;28;20024;-82
2023/03/14 01:25:02;;;;;;;144.55;68.82;;;5.90;99.90;;;;;;5075394;28;20033;-82
2023/03/14 01:27:27;;;;;;;156.65;71.70;;;6.00;99.90;;;;;;5075197;28;20378;-82
2023/03/14 01:29:53;;;;;;;151.02;67.18;;;6.00;99.90;;;;;;5073817;28;20028;-82
2023/03/14 01:32:19;;;;;;;145.55;66.68;;;6.00;99.90;;;;;;5075070;28;20032;-82
2023/03/14 01:34:45;;;;;;;148.68;64.38;;;6.00;99.90;;;;;;5070427;28;20123;-82
2023/03/14 01:37:11;;;;;;;145.57;62.30;;;6.00;99.90;;;;;;5055021;28;20018;-82
2023/03/14 01:39:38;;;;;;;149.45;66.95;;;6.00;99.90;;;;;;5053916;28;20422;-82
2023/03/14 01:42:04;;;;;;;143.88;63.08;;;6.10;99.90;;;;;;5054925;28;20078;-82
2023/03/14 01:44:56;;;;;;;130.23;58.17;;;6.10;99.90;;;;;;5055037;28;20504;-81
2023/03/14 01:47:24;;;;;;;131.73;58.60;;;5.90;99.90;;;;;;5053650;28;20028;-82
2023/03/14 01:49:58;;;;;;;130.05;58.13;;;6.00;99.90;;;;;;5053665;28;20025;-82
2023/03/14 01:52:38;;;;;;;119.80;55.40;;;5.90;99.90;;;;;;5053460;28;20025;-82
2023/03/14 01:55:09;;;;;;;114.53;53.85;;;5.90;99.90;;;;;;5056746;28;20351;-82
2023/03/14 01:57:36;;;;;;;;;;;5.80;99.90;;;;;;5073863;28;20402;-82
2023/03/14 02:00:11;;;;;;;104.95;48.20;;;5.80;99.90;;;;;;5073538;28;19964;-81
2023/03/14 02:02:44;;;;;;;105.43;47.58;;;5.70;99.90;;;;;;5074790;28;20036;-81
2023/03/14 02:05:14;;;;;;;104.10;46.90;;;5.70;99.90;;;;;;5073025;28;20029;-81
2023/03/14 02:07:51;;;;;;;99.97;49.22;;;5.80;99.90;;;;;;5073402;28;20474;-81
2023/03/14 02:10:38;;;;;;;99.75;47.13;;;5.80;99.90;;;;;;5073306;28;20046;-81
2023/03/14 02:13:06;;;;;;;106.53;48.13;;;5.80;99.90;;;;;;5073235;28;20028;-82
2023/03/14 02:15:58;;;;;;;107.82;48.63;;;5.80;99.90;;;;;;5074515;28;20045;-81
2023/03/14 02:18:59;;;;;;;110.40;50.28;;;5.70;99.90;;;;;;5031814;28;20112;-82
2023/03/14 02:21:57;;;;;;;107.45;48.85;;;5.70;99.90;;;;;;5071323;28;20047;-82
2023/03/14 02:24:40;;;;;;;113.22;48.47;;;5.80;99.90;;;;;;5072968;28;20037;-82
2023/03/14 02:27:12;;;;;;;111.47;51.50;;;5.80;99.90;;;;;;5073100;28;20033;-82
2023/03/14 02:30:04;;;;;;;101.05;47.72;;;5.80;99.90;;;;;;5074319;28;20440;-82
2023/03/14 02:32:34;;;;;;;103.43;47.60;;;5.80;99.90;;;;;;5072852;28;20033;-81
2023/03/14 02:35:10;;;;;;;98.45;43.63;;;5.80;99.90;;;;;;5074213;28;20029;-82
2023/03/14 02:37:48;;;;;;;93.80;44.25;;;5.80;99.90;;;;;;5073115;28;20032;-82
2023/03/14 02:40:15;;;;;;;90.72;40.15;;;5.90;99.90;;;;;;5072913;28;20033;-82
2023/03/14 02:42:42;;;;;;;87.93;40.90;;;5.90;99.90;;;;;;5072883;28;20093;-82
2023/03/14 02:45:08;;;;;;;87.35;40.78;;;5.80;99.90;;;;;;5072973;28;20111;-82
2023/03/14 02:47:42;;;;;;;97.70;44.28;;;5.80;99.90;;;;;;5073922;28;20063;-82
2023/03/14 02:50:12;;;;;;;85.28;41.97;;;5.90;99.90;;;;;;5077300;28;20028;-82
2023/03/14 02:52:38;;;;;;;82.38;41.97;;;5.90;99.90;;;;;;5078006;28;20450;-82
2023/03/14 02:55:07;;;;;;;87.25;40.40;;;5.90;99.90;;;;;;5076902;28;20036;-82
2023/03/14 02:57:34;;;;;;;86.70;40.22;;;5.90;99.90;;;;;;5077135;28;20554;-82
2023/03/14 03:00:01;;;;;;;93.20;41.05;;;6.00;99.90;;;;;;5076774;28;20401;-82
2023/03/14 03:02:31;;;;;;;;;;;6.00;99.90;;;;;;5077165;28;20032;-82
2023/03/14 03:04:58;;;;;;;91.90;41.97;;;6.00;99.90;;;;;;5076544;28;20298;-82
2023/03/14 03:07:24;;;;;;;106.07;47.95;;;6.00;99.90;;;;;;5076699;28;20134;-82
2023/03/14 03:09:51;;;;;;;110.13;48.40;;;6.10;99.90;;;;;;5076661;28;20107;-82
2023/03/14 03:12:18;;;;;;;113.95;47.60;;;6.10;99.90;;;;;;5076654;28;20025;-82
2023/03/14 03:14:44;;;;;;;137.25;53.75;;;6.10;99.90;;;;;;5076601;28;20023;-82
2023/03/14 03:17:10;;;;;;;153.45;56.00;;;6.20;99.90;;;;;;5076250;28;20478;-82
2023/03/14 03:19:37;;;;;;;137.73;54.92;;;6.20;99.90;;;;;;5076651;28;20086;-82
2023/03/14 03:22:03;;;;;;;150.68;58.75;;;6.30;99.90;;;;;;5076483;28;20367;-82
2023/03/14 03:24:29;;;;;;;181.57;68.93;;;6.20;99.90;;;;;;5076207;28;20032;-82
2023/03/14 03:26:55;;;;;;;205.30;80.72;;;6.30;99.90;;;;;;5077818;28;20119;-82
2023/03/14 03:29:21;;;;;;;208.13;81.07;;;6.30;99.90;;;;;;5075806;28;20032;-82
2023/03/14 03:31:47;;;;;;;190.77;74.60;;;6.30;99.90;;;;;;5077579;28;20416;-82
2023/03/14 03:34:13;;;;;;;179.90;72.78;;;6.30;99.90;;;;;;5077365;28;20124;-82
2023/03/14 03:36:41;;;;;;;160.30;64.25;;;6.20;99.90;;;;;;5075980;28;20033;-82
2023/03/14 03:39:07;;;;;;;98.95;45.33;;;6.30;99.90;;;;;;5077446;28;20459;-82
2023/03/14 03:41:33;;;;;;;89.43;40.78;;;6.30;99.90;;;;;;5077138;28;20056;-82
2023/03/14 03:43:59;;;;;;;87.20;40.97;;;6.30;99.90;;;;;;5075985;28;20371;-82
2023/03/14 03:46:25;;;;;;;86.80;40.47;;;6.30;99.90;;;;;;5077322;28;20043;-82
2023/03/14 03:48:56;;;;;;;80.43;39.47;;;6.30;99.90;;;;;;5076109;28;20029;-82
2023/03/14 03:51:22;;;;;;;82.00;41.50;;;6.30;99.90;;;;;;5077496;28;20050;-82
2023/03/14 03:53:48;;;;;;;73.20;37.55;;;6.30;99.90;;;;;;5075684;28;20037;-81
2023/03/14 03:56:19;;;;;;;74.82;36.92;;;6.30;99.90;;;;;;5076075;28;20104;-82
2023/03/14 03:58:45;;;;;;;63.13;31.08;;;6.30;99.90;;;;;;5075558;28;20047;-82
2023/03/14 04:01:11;;;;;;;67.30;29.75;;;6.30;99.90;;;;;;5077083;28;20033;-82
2023/03/14 04:03:40;;;;;;;61.00;30.40;;;6.30;99.90;;;;;;5075601;28;20494;-82
2023/03/14 04:06:12;;;;;;;55.92;27.52;;;6.40;99.90;;;;;;5075405;28;20029;-82
2023/03/14 04:08:40;;;;;;;59.58;28.40;;;6.40;99.90;;;;;;5075427;28;20063;-82
2023/03/14 04:11:08;;;;;;;57.22;29.42;;;6.40;99.90;;;;;;5075581;28;20028;-82
2023/03/14 04:13:53;;;;;;;58.80;30.88;;;6.40;99.90;;;;;;5076705;28;20578;-82
2023/03/14 04:16:26;;;;;;;64.75;34.53;;;6.40;99.90;;;;;;5075453;28;20028;-82
2023/03/14 04:18:58;;;;;;;66.90;34.75;;;6.40;99.90;;;;;;5075280;28;20029;-82
2023/03/14 04:21:25;;;;;;;71.28;36.20;;;6.50;99.90;;;;;;5075212;28;20048;-82
2023/03/14 04:23:55;;;;;;;80.53;39.08;;;6.40;99.90;;;;;;5075315;28;20040;-82
2023/03/14 04:26:21;;;;;;;88.43;41.92;;;6.50;99.90;;;;;;5075264;28;20486;-82
2023/03/14 04:28:47;;;;;;;102.88;44.05;;;6.50;99.90;;;;;;5074865;28;20040;-82
2023/03/14 04:31:19;;;;;;;93.13;42.47;;;6.40;99.90;;;;;;5075323;28;20028;-82
2023/03/14 04:33:46;;;;;;;100.93;42.83;;;6.40;99.90;;;;;;5074776;28;20473;-82
2023/03/14 04:36:14;;;;;;;90.50;41.70;;;6.40;99.90;;;;;;5075131;28;20167;-82
2023/03/14 04:38:41;;;;;;;92.40;40.50;;;6.40;99.90;;;;;;5074965;28;20040;-82
2023/03/14 04:41:09;;;;;;;100.78;43.55;;;6.40;99.90;;;;;;5108430;28;20028;-82
2023/03/14 04:43:35;;;;;;;115.75;48.45;;;6.40;99.90;;;;;;5075073;28;20028;-82
2023/03/14 04:46:06;;;;;;;110.43;43.57;;;6.30;99.90;;;;;;5074980;28;20119;-82
2023/03/14 04:48:32;;;;;;;105.82;42.92;;;6.10;99.90;;;;;;5074619;28;20285;-82
2023/03/14 04:50:59;;;;;;;90.13;37.92;;;6.10;99.90;;;;;;5076106;28;20024;-82
2023/03/14 04:53:29;;;;;;;63.50;30.13;;;6.10;99.90;;;;;;5074364;28;20024;-82
2023/03/14 04:55:57;;;;;;;58.03;28.38;;;6.20;99.90;;;;;;5074343;28;20035;-82
2023/03/14 04:58:26;;;;;;;56.50;27.83;;;6.20;99.90;;;;;;5074897;28;20123;-82
2023/03/14 05:00:55;;;;;;;59.80;28.27;;;6.10;99.90;;;;;;5074508;28;20028;-82
2023/03/14 05:03:39;;;;;;;58.15;28.92;;;6.20;99.90;;;;;;5075670;28;20493;-82
2023/03/14 05:06:08;;;;;;;69.95;35.83;;;6.10;99.90;;;;;;5075777;28;20574;-82
2023/03/14 05:08:48;;;;;;;58.90;33.05;;;6.10;99.90;;;;;;5075729;28;20052;-82
2023/03/14 05:11:37;;;;;;;61.80;31.45;;;6.10;99.90;;;;;;5071771;28;20485;-82
2023/03/14 05:14:11;;;;;;;66.45;32.30;;;6.10;99.90;;;;;;5074207;28;20035;-82
2023/03/14 05:16:40;;;;;;;58.95;31.25;;;6.10;99.90;;;;;;5075007;28;20113;-82
2023/03/14 05:19:24;;;;;;;77.10;42.22;;;6.10;99.90;;;;;;5074791;28;20060;-82
2023/03/14 05:22:20;;;;;;;129.73;55.33;;;6.00;99.90;;;;;;5066241;28;20481;-82
2023/03/14 05:24:58;;;;;;;162.70;67.38;;;6.00;99.90;;;;;;5074905;28;20467;-82
2023/03/14 05:27:43;;;;;;;154.25;64.70;;;6.00;99.90;;;;;;5075288;28;20405;-82
2023/03/14 05:30:38;;;;;;;154.25;64.45;;;6.00;99.90;;;;;;5065708;28;20107;-82
2023/03/14 05:33:30;;;;;;;107.60;49.85;;;6.10;99.90;;;;;;5068976;28;20045;-82
2023/03/14 05:36:12;;;;;;;103.28;49.15;;;6.20;99.90;;;;;;5053592;28;20031;-82
2023/03/14 05:38:56;;;;;;;124.03;59.45;;;6.30;99.90;;;;;;5055255;28;20102;-82
2023/03/14 05:41:42;;;;;;;113.63;55.65;;;6.40;99.90;;;;;;5054765;28;20120;-82
2023/03/14 05:44:37;;;;;;;124.30;52.10;;;6.30;99.90;;;;;;5041735;28;20029;-82
2023/03/14 05:47:34;;;;;;;111.60;48.55;;;6.30;99.90;;;;;;5070266;28;20518;-82
2023/03/14 05:50:00;;;;;;;96.43;47.33;;;6.30;99.90;;;;;;5054812;28;20033;-82
2023/03/14 05:52:44;;;;;;;133.45;63.28;;;6.40;99.90;;;;;;5054636;28;20083;-82
2023/03/14 05:55:33;;;;;;;99.82;49.25;;;6.50;99.90;;;;;;5058831;28;20494;-82
2023/03/14 05:58:18;;;;;;;93.88;45.45;;;6.60;99.90;;;;;;5074938;28;20579;-82
2023/03/14 06:01:05;;;;;;;137.45;57.13;;;6.60;99.90;;;;;;5073320;28;20103;-82
2023/03/14 06:03:57;;;;;;;192.77;76.55;;;6.70;99.90;;;;;;5074963;28;20033;-82
2023/03/14 06:06:23;;;;;;;236.50;90.90;;;6.90;99.90;;;;;;5073148;28;20035;-82
2023/03/14 06:08:49;;;;;;;217.25;84.97;;;7.00;99.90;;;;;;5073241;28;20036;-82
2023/03/14 06:11:16;;;;;;;180.77;72.40;;;7.10;99.90;;;;;;5073155;28;20050;-82
2023/03/14 06:13:42;;;;;;;141.55;57.45;;;7.20;99.90;;;;;;5074327;28;20545;-82
2023/03/14 06:16:08;;;;;;;156.88;64.10;;;7.30;99.90;;;;;;5073301;28;20021;-82
2023/03/14 06:18:34;;;;;;;170.68;69.90;;;7.30;99.90;;;;;;5073097;28;20429;-82
2023/03/14 06:21:01;;;;;;;205.43;82.53;;;7.40;99.90;;;;;;5073037;28;20436;-82
2023/03/14 06:23:30;;;;;;;199.82;76.18;;;7.50;99.90;;;;;;5069784;28;20032;-82
2023/03/14 06:25:57;;;;;;;132.27;58.63;;;7.60;99.90;;;;;;5073758;28;20128;-82
2023/03/14 06:28:25;;;;;;;143.88;61.92;;;7.80;99.90;;;;;;5073909;28;20433;-81
2023/03/14 06:30:51;;;;;;;165.82;68.13;;;7.90;99.90;;;;;;5081672;28;20020;-82
2023/03/14 06:33:17;;;;;;;143.52;59.85;;;8.00;99.90;;;;;;5071378;28;20056;-81
2023/03/14 06:35:43;;;;;;;237.45;81.97;;;8.00;99.90;;;;;;5053791;28;20750;-81
2023/03/14 06:38:09;;;;;;;174.48;69.05;;;8.10;99.90;;;;;;5053446;28;20036;-81
2023/03/14 06:40:35;;;;;;;423.38;139.77;;;8.30;99.90;;;;;;5053849;28;20079;-81
2023/03/14 06:43:08;;;;;;;315.77;106.35;;;8.40;99.90;;;;;;5062135;28;20032;-81
2023/03/14 06:45:35;;;;;;;164.45;64.30;;;8.50;99.90;;;;;;5073865;28;20395;-81
2023/03/14 06:48:03;;;;;;;134.25;58.28;;;8.60;99.90;;;;;;5073835;28;20039;-81
2023/03/14 06:50:51;;;;;;;236.90;84.47;;;8.80;99.90;;;;;;5073797;28;20052;-81
2023/03/14 06:53:17;;;;;;;304.13;102.43;;;8.80;99.90;;;;;;5087616;28;20116;-81
2023/03/14 06:55:45;;;;;;;322.90;110.50;;;9.00;99.90;;;;;;5090452;28;20119;-81
2023/03/14 06:58:12;;;;;;;237.48;91.90;;;9.10;99.90;;;;;;5073719;28;20032;-81
2023/03/14 07:00:42;;;;;;;177.80;76.85;;;9.30;99.90;;;;;;5073730;28;20052;-81
2023/03/14 07:03:11;;;;;;;166.32;73.75;;;9.40;99.90;;;;;;5073231;28;20116;-81
2023/03/14 07:05:41;;;;;;;193.25;77.57;;;9.50;99.90;;;;;;5072129;28;20024;-81
2023/03/14 07:08:08;;;;;;;253.05;91.47;;;9.70;99.90;;;;;;5073047;28;20470;-81
2023/03/14 07:10:35;;;;;;;174.13;68.93;;;9.80;99.90;;;;;;5073478;28;20548;-81
2023/03/14 07:13:01;;;;;;;174.63;68.00;;;10.00;99.90;;;;;;5072979;28;20111;-81
2023/03/14 07:15:30;;;;;;;167.00;68.35;;;10.10;99.90;;;;;;5077130;28;20048;-80
2023/03/14 07:18:01;;;;;;;162.57;67.30;;;10.20;99.90;;;;;;5077002;28;20035;-80
2023/03/14 07:20:29;;;;;;;176.00;70.65;;;10.40;99.90;;;;;;5069224;28;20136;-80
2023/03/14 07:22:55;;;;;;;177.32;70.70;;;10.60;99.90;;;;;;5086180;28;20078;-80
2023/03/14 07:25:34;;;;;;;177.43;77.55;;;10.70;99.90;;;;;;5068886;28;20052;-79
2023/03/14 07:28:00;;;;;;;186.57;83.20;;;11.00;99.90;;;;;;5068565;28;20033;-79
2023/03/14 07:30:26;;;;;;;186.25;80.88;;;11.30;99.90;;;;;;5068778;28;20049;-79
2023/03/14 07:32:53;;;;;;;161.65;74.10;;;11.60;99.90;;;;;;5095657;28;20036;-78
2023/03/14 07:35:24;;;;;;;158.68;70.93;;;11.80;99.90;;;;;;5073004;28;20025;-78
2023/03/14 07:37:50;;;;;;;149.38;65.80;;;12.10;99.90;;;;;;5073497;28;20371;-78
2023/03/14 07:40:21;;;;;;;140.70;62.00;;;12.40;99.90;;;;;;5090038;28;20036;-78
2023/03/14 07:42:48;;;;;;;143.18;59.55;;;12.80;99.90;;;;;;5073121;28;20494;-78
2023/03/14 07:45:25;;;;;;;137.57;57.42;;;13.00;99.90;;;;;;5073153;28;20550;-77
2023/03/14 07:47:51;;;;;;;127.20;53.70;;;13.30;99.90;;;;;;5056903;28;20136;-77
2023/03/14 07:50:17;;;;;;;141.95;61.97;;;13.60;99.90;;;;;;5056629;28;20040;-77
2023/03/14 07:52:43;;;;;;;144.45;58.80;;;13.90;99.90;;;;;;5056483;28;20494;-77
2023/03/14 07:55:14;;;;;;;146.98;64.53;;;13.90;99.90;;;;;;5060291;28;20021;-77
2023/03/14 07:57:40;;;;;;;148.50;64.18;;;14.10;99.90;;;;;;5076996;28;20051;-77
2023/03/14 08:00:07;;;;;;;157.00;64.10;;;14.30;99.90;;;;;;5074731;28;20078;-77
2023/03/14 08:02:38;;;;;;;178.63;63.15;;;14.40;99.90;;;;;;5066336;28;20033;-78
2023/03/14 08:05:05;;;;;;;131.70;56.13;;;14.50;99.90;;;;;;5073278;28;20520;-78
2023/03/14 08:07:31;;;;;;;129.50;52.20;;;14.70;99.90;;;;;;5074231;28;20029;-78
2023/03/14 08:09:57;;;;;;;140.38;49.25;;;14.80;99.90;;;;;;5082124;28;20027;-78
2023/03/14 08:12:23;;;;;;;147.93;47.97;;;14.90;99.90;;;;;;5079216;28;20100;-78
2023/03/14 08:14:49;;;;;;;160.38;49.75;;;15.20;99.90;;;;;;5084050;28;20028;-77
2023/03/14 08:17:15;;;;;;;100.28;42.20;;;15.40;99.90;;;;;;5094335;28;20039;-77
2023/03/14 08:19:44;;;;;;;138.63;57.83;;;15.60;99.90;;;;;;5077272;28;20025;-76
2023/03/14 08:22:09;;;;;;;131.10;54.30;;;15.80;99.90;;;;;;5076899;28;20032;-76
2023/03/14 08:24:36;;;;;;;105.65;49.22;;;16.20;99.90;;;;;;5074438;28;20036;-75
2023/03/14 08:27:02;;;;;;;139.85;47.42;;;16.90;99.90;;;;;;5079601;28;20154;-74
2023/03/14 08:29:28;;;;;;;99.03;38.90;;;17.50;99.90;;;;;;5073366;28;20028;-70
2023/03/14 08:31:54;;;;;;;46.47;23.17;;;18.20;99.90;;;;;;5059991;28;20021;-68
2023/03/14 08:34:21;;;;;;;32.58;13.38;;;18.80;99.90;;;;;;5075368;28;20040;-68
2023/03/14 08:36:47;;;;;;;38.03;11.82;;;19.30;99.90;;;;;;5090812;28;20030;-68
2023/03/14 08:39:13;;;;;;;53.58;14.00;;;20.00;99.90;;;;;;5074714;28;20457;-68
2023/03/14 08:41:41;;;;;;;58.40;12.50;;;20.50;99.90;;;;;;5058571;28;20045;-68
2023/03/14 08:44:11;;;;;;;44.20;16.30;;;21.00;99.90;;;;;;5075640;28;20027;-68
2023/03/14 08:46:37;;;;;;;17.98;9.48;;;21.50;99.90;;;;;;5071086;28;20482;-68
2023/03/14 08:49:03;;;;;;;14.23;4.88;;;21.80;99.90;;;;;;5075695;28;20111;-68
2023/03/14 08:51:31;;;;;;;35.78;6.97;;;21.80;99.90;;;;;;5089251;28;20032;-68
2023/03/14 08:53:57;;;;;;;68.93;10.18;;;21.90;99.90;;;;;;5078881;28;20394;-68
2023/03/14 08:56:23;;;;;;;22.13;4.97;;;21.90;99.90;;;;;;5072666;28;20032;-69
2023/03/14 08:58:48;;;;;;;18.55;5.05;;;22.10;99.90;;;;;;5094004;28;20031;-68
2023/03/14 09:01:14;;;;;;;22.65;4.28;;;22.40;99.90;;;;;;5087467;28;20441;-69
2023/03/14 09:03:40;;;;;;;12.50;4.80;;;22.50;99.90;;;;;;5083746;28;20040;-68
2023/03/14 09:06:09;;;;;;;20.92;4.88;;;22.30;99.90;;;;;;5082164;28;20028;-69
2023/03/14 09:08:35;;;;;;;13.10;4.80;;;22.20;99.90;;;;;;5077190;28;20368;-69
2023/03/14 09:11:01;;;;;;;43.60;7.03;;;22.10;99.90;;;;;;5075713;28;20016;-69
2023/03/14 09:13:27;;;;;;;18.25;4.03;;;22.10;99.90;;;;;;5085144;28;20488;-69
2023/03/14 09:15:55;;;;;;;81.80;10.48;;;22.20;99.90;;;;;;5084378;28;20020;-68
2023/03/14 09:18:30;;;;;;;22.05;3.70;;;22.50;99.90;;;;;;5087997;28;20069;-68
2023/03/14 09:20:56;;;;;;;8.13;2.53;;;22.90;99.90;;;;;;5076900;28;20028;-68
2023/03/14 09:23:22;;;;;;;6.13;3.42;;;22.90;99.90;;;;;;5065164;28;20051;-68
2023/03/14 09:25:48;;;;;;;10.68;3.13;;;23.20;99.90;;;;;;5084187;28;20495;-68
2023/03/14 09:28:15;;;;;;;4.88;2.90;;;23.50;99.90;;;;;;5079624;28;20082;-68
2023/03/14 09:30:41;;;;;;;7.60;3.50;;;24.00;99.90;;;;;;5090299;28;20047;-68
2023/03/14 09:33:07;;;;;;;5.57;2.53;;;24.50;99.90;;;;;;5085335;28;20485;-68
2023/03/14 09:35:36;;;;;;;10.77;3.10;;;24.70;99.90;;;;;;5083731;28;20051;-68
2023/03/14 09:38:02;;;;;;;16.15;4.63;;;24.90;99.90;;;;;;5095321;28;20131;-68
2023/03/14 09:40:34;;;;;;;20.45;5.30;;;24.80;99.90;;;;;;5085360;28;20028;-69
2023/03/14 09:43:00;;;;;;;18.58;5.20;;;24.60;99.90;;;;;;5076808;28;20032;-68
2023/03/14 09:45:28;;;;;;;10.13;4.60;;;24.50;99.90;;;;;;5080975;28;20040;-69
2023/03/14 09:47:56;;;;;;;9.00;4.15;;;24.50;99.90;;;;;;5085933;28;20163;-69
2023/03/14 09:50:24;;;;;;;12.85;5.00;;;24.30;99.90;;;;;;5084502;28;20550;-68
2023/03/14 09:52:56;;;;;;;15.23;6.20;;;24.50;99.90;;;;;;5081898;28;20159;-68
2023/03/14 09:55:23;;;;;;;14.57;5.50;;;25.20;99.90;;;;;;5089045;28;20028;-68
2023/03/14 09:57:53;;;;;;;12.15;4.72;;;25.20;99.90;;;;;;5074386;28;20039;-68
2023/03/14 10:00:23;;;;;;;9.23;4.22;;;25.00;99.90;;;;;;5079527;28;20032;-68
2023/03/14 10:03:12;;;;;;;13.60;5.53;;;25.20;99.90;;;;;;5072037;28;20052;-68
2023/03/14 10:05:40;;;;;;;8.88;4.22;;;25.80;99.90;;;;;;5078728;27;20032;-68
2023/03/14 10:08:06;;;;;;;11.25;4.55;;;26.10;99.90;;;;;;5076313;28;20036;-68
2023/03/14 10:10:32;;;;;;;6.30;3.38;;;25.30;99.90;;;;;;5067095;28;20021;-68
2023/03/14 10:13:09;;;;;;;6.82;3.15;;;25.60;99.90;;;;;;5055770;28;20459;-68
2023/03/14 10:15:36;;;;;;;5.13;3.58;;;26.40;99.90;;;;;;5086276;28;20079;-68
2023/03/14 10:18:04;;;;;;;5.90;3.38;;;26.50;99.90;;;;;;5073015;28;20024;-68
2023/03/14 10:20:39;;;;;;;6.63;3.10;;;26.70;99.90;;;;;;5082863;28;20040;-68
2023/03/14 10:23:16;;;;;;;7.28;3.17;;;27.20;99.90;;;;;;5063960;28;20105;-69
2023/03/14 10:25:46;;;;;;;6.07;2.75;;;26.60;99.90;;;;;;5063305;28;20029;-68
2023/03/14 10:28:31;;;;;;;5.05;3.25;;;25.20;99.90;;;;;;5070964;28;20043;-69
2023/03/14 10:30:58;;;;;;;9.32;3.35;;;25.20;99.90;;;;;;5083074;28;20039;-69
2023/03/14 10:33:31;;;;;;;6.18;2.63;;;24.90;99.90;;;;;;5085430;28;20044;-69
2023/03/14 10:36:03;;;;;;;6.93;2.67;;;24.90;99.90;;;;;;5079393;28;20541;-69
2023/03/14 10:38:32;;;;;;;10.80;3.30;;;25.50;99.90;;;;;;5077787;28;20555;-69
2023/03/14 10:40:59;;;;;;;3.28;2.00;;;25.80;99.90;;;;;;5073927;28;20029;-70
2023/03/14 10:43:32;;;;;;;3.38;1.70;;;25.50;99.90;;;;;;5073762;28;20059;-70
2023/03/14 10:46:05;;;;;;;8.68;2.92;;;24.00;99.90;;;;;;5057944;28;20032;-70
2023/03/14 10:48:34;;;;;;;17.23;3.28;;;23.80;99.90;;;;;;5053070;28;20120;-70
2023/03/14 10:51:03;;;;;;;9.55;2.85;;;24.10;99.90;;;;;;5064285;28;20335;-70
2023/03/14 10:53:46;;;;;;;2.47;1.25;;;24.20;99.90;;;;;;5073989;28;20047;-70
2023/03/14 10:56:14;;;;;;;7.15;1.50;;;23.20;99.90;;;;;;5071796;28;20032;-70
2023/03/14 10:58:49;;;;;;;3.10;1.20;;;23.30;99.90;;;;;;5064014;28;20112;-71
2023/03/14 11:01:30;;;;;;;5.93;2.10;;;23.00;99.90;;;;;;5069364;28;20044;-70
2023/03/14 11:04:01;;;;;;;4.55;1.38;;;23.00;99.90;;;;;;5066121;28;20120;-71
2023/03/14 11:06:42;;;;;;;8.93;2.22;;;22.80;99.90;;;;;;5068888;28;20386;-72
2023/03/14 11:09:14;;;;;;;8.05;2.20;;;22.50;99.90;;;;;;5058425;28;20036;-71
2023/03/14 11:11:45;;;;;;;19.10;3.80;;;22.50;99.90;;;;;;5071886;28;20036;-71
2023/03/14 11:14:14;;;;;;;37.15;5.38;;;22.30;99.90;;;;;;5063572;28;20047;-72
2023/03/14 11:16:58;;;;;;;5.45;1.80;;;22.00;99.90;;;;;;5068559;28;20099;-71
2023/03/14 11:19:36;;;;;;;9.98;3.80;;;21.70;99.90;;;;;;5077563;28;20024;-71
2023/03/14 11:22:26;;;;;;;5.78;2.00;;;21.70;99.90;;;;;;5076931;28;20025;-71
2023/03/14 11:25:08;;;;;;;12.35;3.60;;;22.00;99.90;;;;;;5067865;28;20025;-71
2023/03/14 11:27:33;;;;;;;27.95;4.28;;;22.40;99.90;;;;;;5080756;28;20115;-71
2023/03/14 11:30:20;;;;;;;23.58;4.32;;;22.70;99.90;;;;;;5097598;28;20131;-71
2023/03/14 11:32:56;;;;;;;19.52;3.35;;;23.00;99.90;;;;;;5097739;28;20047;-71
2023/03/14 11:35:42;;;;;;;25.83;4.32;;;23.40;99.90;;;;;;5079714;28;20021;-71
2023/03/14 11:38:14;;;;;;;14.05;3.15;;;23.40;99.90;;;;;;5074173;28;20082;-71
2023/03/14 11:40:41;;;;;;;9.13;3.72;;;23.20;99.90;;;;;;5074076;28;20383;-71
2023/03/14 11:43:19;;;;;;;16.92;5.00;;;23.00;99.90;;;;;;5068014;28;20741;-71
2023/03/14 11:45:49;;;;;;;5.80;1.48;;;22.90;99.90;;;;;;5069669;28;20490;-71
2023/03/14 11:48:27;;;;;;;6.20;1.23;;;22.70;99.90;;;;;;5067082;28;20036;-71
2023/03/14 11:50:57;;;;;;;3.88;1.48;;;22.50;99.90;;;;;;5097765;28;20031;-71
2023/03/14 11:53:43;;;;;;;6.53;1.80;;;22.60;99.90;;;;;;5089335;28;20029;-71
2023/03/14 11:56:29;;;;;;;9.15;2.83;;;22.80;99.90;;;;;;5074997;28;20031;-71
2023/03/14 11:58:59;;;;;;;2.47;1.40;;;23.30;99.90;;;;;;5074543;28;20020;-71
2023/03/14 12:01:40;;;;;;;66.55;7.50;;;23.70;99.90;;;;;;5076517;28;20024;-71
2023/03/14 12:04:21;;;;;;;5.72;1.70;;;23.90;99.90;;;;;;5068071;28;20434;-71
2023/03/14 12:06:50;;;;;;;21.15;3.72;;;24.20;99.90;;;;;;5056825;28;20486;-71
2023/03/14 12:09:19;;;;;;;2.03;1.65;;;24.20;99.90;;;;;;5088262;28;20051;-71
2023/03/14 12:11:57;;;;;;;9.23;2.00;;;24.50;99.90;;;;;;5092319;28;20024;-71
2023/03/14 12:14:43;;;;;;;2.22;0.80;;;24.70;99.90;;;;;;5067995;28;20112;-71
2023/03/14 12:17:12;;;;;;;1.17;0.70;;;24.60;99.90;;;;;;5077138;28;20474;-71
2023/03/14 12:19:40;;;;;;;8.77;1.90;;;24.70;99.90;;;;;;5062952;28;20035;-71
2023/03/14 12:22:28;;;;;;;6.53;1.60;;;24.50;99.90;;;;;;5077192;28;20040;-71
2023/03/14 12:25:17;;;;;;;3.22;1.00;;;24.60;99.90;;;;;;5056635;28;20021;-71
2023/03/14 12:28:05;;;;;;;4.70;1.40;;;25.10;99.90;;;;;;5061056;28;20036;-71
2023/03/14 12:30:39;;;;;;;6.32;1.20;;;25.10;99.90;;;;;;5085933;28;20020;-71
2023/03/14 12:33:17;;;;;;;1.75;0.88;;;25.00;99.90;;;;;;5076698;28;20049;-71
2023/03/14 12:36:03;;;;;;;2.15;1.10;;;25.10;99.90;;;;;;5069874;28;20060;-71
2023/03/14 12:39:01;;;;;;;5.53;1.67;;;24.80;99.90;;;;;;5060204;28;20040;-71
2023/03/14 12:41:36;;;;;;;2.95;1.20;;;25.10;99.90;;;;;;5070239;28;20032;-71
2023/03/14 12:44:40;;;;;;;2.70;0.98;;;25.30;99.90;;;;;;5093868;28;20371;-71
2023/03/14 12:47:18;;;;;;;4.05;1.20;;;25.10;99.90;;;;;;5083317;28;20052;-71
2023/03/14 12:49:50;;;;;;;1.02;0.70;;;24.60;99.90;;;;;;5068133;28;20032;-71
2023/03/14 12:52:45;;;;;;;3.83;1.15;;;24.40;99.90;;;;;;5077043;28;20351;-71
2023/03/14 12:55:33;;;;;;;7.82;1.98;;;24.70;99.90;;;;;;5073729;28;20071;-72